<?xml version="1.0" encoding="UTF-8" ?>
<gpx version="1.1" xmlns:xsi="http://www.w3.org/2001/XMLSchema-instance" 
    xmlns="http://www.topografix.com/GPX/1/1" 
    xsi:schemaLocation="http://www.topografix.com/GPX/1/1 http://www.topografix.com/GPX/1/1/gpx.xsd" 
    creator="Openrunner - https://www.openrunner.com" >	<trk>
						<name>Balade vers le pont siphon - Brignais-21064754</name>
						<trkseg>
					<trkpt lat="45.677670" lon="4.751460">
						<ele>208</ele>
						<time>2025-04-07T13:56:07Z</time>
					</trkpt>
					<trkpt lat="45.677380" lon="4.750840">
						<ele>208</ele>
						<time>2025-04-07T13:57:17Z</time>
					</trkpt>
					<trkpt lat="45.677270" lon="4.750670">
						<ele>211</ele>
						<time>2025-04-07T13:57:38Z</time>
					</trkpt>
					<trkpt lat="45.677170" lon="4.750460">
						<ele>214</ele>
						<time>2025-04-07T13:58:02Z</time>
					</trkpt>
					<trkpt lat="45.677120" lon="4.750480">
						<ele>214</ele>
						<time>2025-04-07T13:58:09Z</time>
					</trkpt>
					<trkpt lat="45.677170" lon="4.750460">
						<ele>214</ele>
						<time>2025-04-07T13:58:16Z</time>
					</trkpt>
					<trkpt lat="45.677090" lon="4.750380">
						<ele>216</ele>
						<time>2025-04-07T13:58:29Z</time>
					</trkpt>
					<trkpt lat="45.676760" lon="4.750570">
						<ele>214</ele>
						<time>2025-04-07T13:59:16Z</time>
					</trkpt>
					<trkpt lat="45.676740" lon="4.750590">
						<ele>214</ele>
						<time>2025-04-07T13:59:19Z</time>
					</trkpt>
					<trkpt lat="45.676600" lon="4.750620">
						<ele>214</ele>
						<time>2025-04-07T13:59:38Z</time>
					</trkpt>
					<trkpt lat="45.676030" lon="4.750620">
						<ele>213</ele>
						<time>2025-04-07T14:00:54Z</time>
					</trkpt>
					<trkpt lat="45.675970" lon="4.750620">
						<ele>213</ele>
						<time>2025-04-07T14:01:02Z</time>
					</trkpt>
					<trkpt lat="45.675970" lon="4.750640">
						<ele>213</ele>
						<time>2025-04-07T14:01:04Z</time>
					</trkpt>
					<trkpt lat="45.675970" lon="4.750620">
						<ele>213</ele>
						<time>2025-04-07T14:01:06Z</time>
					</trkpt>
					<trkpt lat="45.675950" lon="4.750450">
						<ele>215</ele>
						<time>2025-04-07T14:01:22Z</time>
					</trkpt>
					<trkpt lat="45.676000" lon="4.749990">
						<ele>221</ele>
						<time>2025-04-07T14:02:06Z</time>
					</trkpt>
					<trkpt lat="45.676010" lon="4.749930">
						<ele>222</ele>
						<time>2025-04-07T14:02:11Z</time>
					</trkpt>
					<trkpt lat="45.676040" lon="4.749880">
						<ele>223</ele>
						<time>2025-04-07T14:02:18Z</time>
					</trkpt>
					<trkpt lat="45.676040" lon="4.749870">
						<ele>223</ele>
						<time>2025-04-07T14:02:18Z</time>
					</trkpt>
					<trkpt lat="45.675990" lon="4.749840">
						<ele>223</ele>
						<time>2025-04-07T14:02:26Z</time>
					</trkpt>
					<trkpt lat="45.675860" lon="4.749830">
						<ele>223</ele>
						<time>2025-04-07T14:02:43Z</time>
					</trkpt>
					<trkpt lat="45.675710" lon="4.749820">
						<ele>224</ele>
						<time>2025-04-07T14:03:03Z</time>
					</trkpt>
					<trkpt lat="45.675420" lon="4.749850">
						<ele>224</ele>
						<time>2025-04-07T14:03:42Z</time>
					</trkpt>
					<trkpt lat="45.675310" lon="4.749790">
						<ele>226</ele>
						<time>2025-04-07T14:03:58Z</time>
					</trkpt>
					<trkpt lat="45.675160" lon="4.749710">
						<ele>228</ele>
						<time>2025-04-07T14:04:19Z</time>
					</trkpt>
					<trkpt lat="45.675140" lon="4.749680">
						<ele>229</ele>
						<time>2025-04-07T14:04:23Z</time>
					</trkpt>
					<trkpt lat="45.674930" lon="4.749400">
						<ele>236</ele>
						<time>2025-04-07T14:05:01Z</time>
					</trkpt>
					<trkpt lat="45.674910" lon="4.749370">
						<ele>237</ele>
						<time>2025-04-07T14:05:05Z</time>
					</trkpt>
					<trkpt lat="45.674820" lon="4.749320">
						<ele>238</ele>
						<time>2025-04-07T14:05:18Z</time>
					</trkpt>
					<trkpt lat="45.674740" lon="4.749280">
						<ele>239</ele>
						<time>2025-04-07T14:05:29Z</time>
					</trkpt>
					<trkpt lat="45.674660" lon="4.749250">
						<ele>239</ele>
						<time>2025-04-07T14:05:40Z</time>
					</trkpt>
					<trkpt lat="45.674630" lon="4.749230">
						<ele>240</ele>
						<time>2025-04-07T14:05:45Z</time>
					</trkpt>
					<trkpt lat="45.674580" lon="4.749180">
						<ele>241</ele>
						<time>2025-04-07T14:05:53Z</time>
					</trkpt>
					<trkpt lat="45.674500" lon="4.749100">
						<ele>242</ele>
						<time>2025-04-07T14:06:06Z</time>
					</trkpt>
					<trkpt lat="45.674460" lon="4.749040">
						<ele>243</ele>
						<time>2025-04-07T14:06:14Z</time>
					</trkpt>
					<trkpt lat="45.674440" lon="4.748980">
						<ele>245</ele>
						<time>2025-04-07T14:06:20Z</time>
					</trkpt>
					<trkpt lat="45.674430" lon="4.748910">
						<ele>246</ele>
						<time>2025-04-07T14:06:26Z</time>
					</trkpt>
					<trkpt lat="45.674430" lon="4.748870">
						<ele>247</ele>
						<time>2025-04-07T14:06:30Z</time>
					</trkpt>
					<trkpt lat="45.674450" lon="4.748730">
						<ele>250</ele>
						<time>2025-04-07T14:06:43Z</time>
					</trkpt>
					<trkpt lat="45.674450" lon="4.748730">
						<ele>250</ele>
						<time>2025-04-07T14:06:44Z</time>
					</trkpt>
					<trkpt lat="45.674620" lon="4.748770">
						<ele>249</ele>
						<time>2025-04-07T14:07:07Z</time>
					</trkpt>
					<trkpt lat="45.674630" lon="4.748760">
						<ele>249</ele>
						<time>2025-04-07T14:07:08Z</time>
					</trkpt>
					<trkpt lat="45.674660" lon="4.748740">
						<ele>250</ele>
						<time>2025-04-07T14:07:13Z</time>
					</trkpt>
					<trkpt lat="45.674730" lon="4.748740">
						<ele>250</ele>
						<time>2025-04-07T14:07:22Z</time>
					</trkpt>
					<trkpt lat="45.674740" lon="4.748640">
						<ele>252</ele>
						<time>2025-04-07T14:07:31Z</time>
					</trkpt>
					<trkpt lat="45.674790" lon="4.748280">
						<ele>258</ele>
						<time>2025-04-07T14:08:06Z</time>
					</trkpt>
					<trkpt lat="45.674850" lon="4.747890">
						<ele>262</ele>
						<time>2025-04-07T14:08:43Z</time>
					</trkpt>
					<trkpt lat="45.674870" lon="4.747870">
						<ele>262</ele>
						<time>2025-04-07T14:08:46Z</time>
					</trkpt>
					<trkpt lat="45.675100" lon="4.747680">
						<ele>263</ele>
						<time>2025-04-07T14:09:22Z</time>
					</trkpt>
					<trkpt lat="45.675100" lon="4.747650">
						<ele>264</ele>
						<time>2025-04-07T14:09:24Z</time>
					</trkpt>
					<trkpt lat="45.675130" lon="4.747550">
						<ele>265</ele>
						<time>2025-04-07T14:09:34Z</time>
					</trkpt>
					<trkpt lat="45.675160" lon="4.747290">
						<ele>267</ele>
						<time>2025-04-07T14:09:59Z</time>
					</trkpt>
					<trkpt lat="45.675100" lon="4.746990">
						<ele>270</ele>
						<time>2025-04-07T14:10:28Z</time>
					</trkpt>
					<trkpt lat="45.675090" lon="4.746920">
						<ele>271</ele>
						<time>2025-04-07T14:10:35Z</time>
					</trkpt>
					<trkpt lat="45.675110" lon="4.746820">
						<ele>271</ele>
						<time>2025-04-07T14:10:44Z</time>
					</trkpt>
					<trkpt lat="45.675220" lon="4.746680">
						<ele>272</ele>
						<time>2025-04-07T14:11:04Z</time>
					</trkpt>
					<trkpt lat="45.675270" lon="4.746550">
						<ele>273</ele>
						<time>2025-04-07T14:11:18Z</time>
					</trkpt>
					<trkpt lat="45.675310" lon="4.746400">
						<ele>274</ele>
						<time>2025-04-07T14:11:33Z</time>
					</trkpt>
					<trkpt lat="45.675300" lon="4.746120">
						<ele>275</ele>
						<time>2025-04-07T14:11:59Z</time>
					</trkpt>
					<trkpt lat="45.675300" lon="4.746090">
						<ele>275</ele>
						<time>2025-04-07T14:12:02Z</time>
					</trkpt>
					<trkpt lat="45.675630" lon="4.745840">
						<ele>277</ele>
						<time>2025-04-07T14:12:52Z</time>
					</trkpt>
					<trkpt lat="45.675800" lon="4.745670">
						<ele>279</ele>
						<time>2025-04-07T14:13:19Z</time>
					</trkpt>
					<trkpt lat="45.675860" lon="4.745610">
						<ele>279</ele>
						<time>2025-04-07T14:13:29Z</time>
					</trkpt>
					<trkpt lat="45.676320" lon="4.745370">
						<ele>280</ele>
						<time>2025-04-07T14:14:34Z</time>
					</trkpt>
					<trkpt lat="45.676370" lon="4.745350">
						<ele>280</ele>
						<time>2025-04-07T14:14:41Z</time>
					</trkpt>
					<trkpt lat="45.676580" lon="4.745200">
						<ele>281</ele>
						<time>2025-04-07T14:15:13Z</time>
					</trkpt>
					<trkpt lat="45.676900" lon="4.744910">
						<ele>281</ele>
						<time>2025-04-07T14:16:03Z</time>
					</trkpt>
					<trkpt lat="45.677330" lon="4.744270">
						<ele>285</ele>
						<time>2025-04-07T14:17:26Z</time>
					</trkpt>
					<trkpt lat="45.677450" lon="4.744010">
						<ele>286</ele>
						<time>2025-04-07T14:17:55Z</time>
					</trkpt>
					<trkpt lat="45.677580" lon="4.743730">
						<ele>288</ele>
						<time>2025-04-07T14:18:26Z</time>
					</trkpt>
					<trkpt lat="45.677710" lon="4.743520">
						<ele>289</ele>
						<time>2025-04-07T14:18:53Z</time>
					</trkpt>
					<trkpt lat="45.677830" lon="4.743360">
						<ele>289</ele>
						<time>2025-04-07T14:19:15Z</time>
					</trkpt>
					<trkpt lat="45.677980" lon="4.743220">
						<ele>289</ele>
						<time>2025-04-07T14:19:38Z</time>
					</trkpt>
					<trkpt lat="45.678030" lon="4.743170">
						<ele>288</ele>
						<time>2025-04-07T14:19:47Z</time>
					</trkpt>
					<trkpt lat="45.678170" lon="4.743030">
						<ele>288</ele>
						<time>2025-04-07T14:20:09Z</time>
					</trkpt>
					<trkpt lat="45.678580" lon="4.742610">
						<ele>289</ele>
						<time>2025-04-07T14:21:17Z</time>
					</trkpt>
					<trkpt lat="45.678880" lon="4.742360">
						<ele>289</ele>
						<time>2025-04-07T14:22:03Z</time>
					</trkpt>
					<trkpt lat="45.678980" lon="4.742310">
						<ele>289</ele>
						<time>2025-04-07T14:22:17Z</time>
					</trkpt>
					<trkpt lat="45.678990" lon="4.742240">
						<ele>289</ele>
						<time>2025-04-07T14:22:24Z</time>
					</trkpt>
					<trkpt lat="45.679030" lon="4.741710">
						<ele>290</ele>
						<time>2025-04-07T14:23:13Z</time>
					</trkpt>
					<trkpt lat="45.679160" lon="4.740770">
						<ele>290</ele>
						<time>2025-04-07T14:24:43Z</time>
					</trkpt>
					<trkpt lat="45.679180" lon="4.740610">
						<ele>291</ele>
						<time>2025-04-07T14:24:58Z</time>
					</trkpt>
					<trkpt lat="45.679270" lon="4.740570">
						<ele>290</ele>
						<time>2025-04-07T14:25:11Z</time>
					</trkpt>
					<trkpt lat="45.679340" lon="4.740470">
						<ele>290</ele>
						<time>2025-04-07T14:25:24Z</time>
					</trkpt>
					<trkpt lat="45.679460" lon="4.740320">
						<ele>290</ele>
						<time>2025-04-07T14:25:45Z</time>
					</trkpt>
					<trkpt lat="45.679530" lon="4.740190">
						<ele>290</ele>
						<time>2025-04-07T14:26:00Z</time>
					</trkpt>
					<trkpt lat="45.679600" lon="4.739990">
						<ele>290</ele>
						<time>2025-04-07T14:26:21Z</time>
					</trkpt>
					<trkpt lat="45.679600" lon="4.739980">
						<ele>290</ele>
						<time>2025-04-07T14:26:22Z</time>
					</trkpt>
					<trkpt lat="45.679740" lon="4.739560">
						<ele>289</ele>
						<time>2025-04-07T14:27:05Z</time>
					</trkpt>
					<trkpt lat="45.680080" lon="4.738770">
						<ele>288</ele>
						<time>2025-04-07T14:28:32Z</time>
					</trkpt>
					<trkpt lat="45.680260" lon="4.738300">
						<ele>288</ele>
						<time>2025-04-07T14:29:22Z</time>
					</trkpt>
					<trkpt lat="45.680390" lon="4.737720">
						<ele>289</ele>
						<time>2025-04-07T14:30:19Z</time>
					</trkpt>
					<trkpt lat="45.680460" lon="4.737630">
						<ele>289</ele>
						<time>2025-04-07T14:30:31Z</time>
					</trkpt>
					<trkpt lat="45.680550" lon="4.737590">
						<ele>288</ele>
						<time>2025-04-07T14:30:44Z</time>
					</trkpt>
					<trkpt lat="45.680560" lon="4.737590">
						<ele>288</ele>
						<time>2025-04-07T14:30:45Z</time>
					</trkpt>
					<trkpt lat="45.681050" lon="4.737440">
						<ele>288</ele>
						<time>2025-04-07T14:31:52Z</time>
					</trkpt>
					<trkpt lat="45.681280" lon="4.737360">
						<ele>288</ele>
						<time>2025-04-07T14:32:24Z</time>
					</trkpt>
					<trkpt lat="45.681430" lon="4.737250">
						<ele>288</ele>
						<time>2025-04-07T14:32:46Z</time>
					</trkpt>
					<trkpt lat="45.681730" lon="4.737020">
						<ele>288</ele>
						<time>2025-04-07T14:33:32Z</time>
					</trkpt>
					<trkpt lat="45.681860" lon="4.736930">
						<ele>287</ele>
						<time>2025-04-07T14:33:51Z</time>
					</trkpt>
					<trkpt lat="45.682310" lon="4.736870">
						<ele>286</ele>
						<time>2025-04-07T14:34:51Z</time>
					</trkpt>
					<trkpt lat="45.682370" lon="4.736830">
						<ele>285</ele>
						<time>2025-04-07T14:35:00Z</time>
					</trkpt>
					<trkpt lat="45.682380" lon="4.736840">
						<ele>285</ele>
						<time>2025-04-07T14:35:02Z</time>
					</trkpt>
					<trkpt lat="45.682560" lon="4.736880">
						<ele>285</ele>
						<time>2025-04-07T14:35:26Z</time>
					</trkpt>
					<trkpt lat="45.682980" lon="4.736760">
						<ele>282</ele>
						<time>2025-04-07T14:36:23Z</time>
					</trkpt>
					<trkpt lat="45.683420" lon="4.736690">
						<ele>280</ele>
						<time>2025-04-07T14:37:22Z</time>
					</trkpt>
					<trkpt lat="45.683420" lon="4.736680">
						<ele>280</ele>
						<time>2025-04-07T14:37:23Z</time>
					</trkpt>
					<trkpt lat="45.683530" lon="4.736570">
						<ele>280</ele>
						<time>2025-04-07T14:37:41Z</time>
					</trkpt>
					<trkpt lat="45.683900" lon="4.736290">
						<ele>278</ele>
						<time>2025-04-07T14:38:37Z</time>
					</trkpt>
					<trkpt lat="45.684220" lon="4.736180">
						<ele>277</ele>
						<time>2025-04-07T14:39:21Z</time>
					</trkpt>
					<trkpt lat="45.684520" lon="4.736170">
						<ele>276</ele>
						<time>2025-04-07T14:40:01Z</time>
					</trkpt>
					<trkpt lat="45.684700" lon="4.736160">
						<ele>275</ele>
						<time>2025-04-07T14:40:25Z</time>
					</trkpt>
					<trkpt lat="45.684750" lon="4.736160">
						<ele>275</ele>
						<time>2025-04-07T14:40:31Z</time>
					</trkpt>
					<trkpt lat="45.684920" lon="4.736000">
						<ele>273</ele>
						<time>2025-04-07T14:40:59Z</time>
					</trkpt>
					<trkpt lat="45.684980" lon="4.735910">
						<ele>272</ele>
						<time>2025-04-07T14:41:10Z</time>
					</trkpt>
					<trkpt lat="45.685180" lon="4.735630">
						<ele>269</ele>
						<time>2025-04-07T14:41:48Z</time>
					</trkpt>
					<trkpt lat="45.685410" lon="4.735470">
						<ele>267</ele>
						<time>2025-04-07T14:42:22Z</time>
					</trkpt>
					<trkpt lat="45.685740" lon="4.735210">
						<ele>263</ele>
						<time>2025-04-07T14:43:12Z</time>
					</trkpt>
					<trkpt lat="45.685860" lon="4.735110">
						<ele>261</ele>
						<time>2025-04-07T14:43:31Z</time>
					</trkpt>
					<trkpt lat="45.686060" lon="4.735060">
						<ele>260</ele>
						<time>2025-04-07T14:43:58Z</time>
					</trkpt>
					<trkpt lat="45.686130" lon="4.735090">
						<ele>260</ele>
						<time>2025-04-07T14:44:07Z</time>
					</trkpt>
					<trkpt lat="45.686380" lon="4.735180">
						<ele>259</ele>
						<time>2025-04-07T14:44:42Z</time>
					</trkpt>
					<trkpt lat="45.686620" lon="4.735480">
						<ele>259</ele>
						<time>2025-04-07T14:45:24Z</time>
					</trkpt>
					<trkpt lat="45.686810" lon="4.735570">
						<ele>258</ele>
						<time>2025-04-07T14:45:51Z</time>
					</trkpt>
					<trkpt lat="45.687230" lon="4.735770">
						<ele>254</ele>
						<time>2025-04-07T14:46:50Z</time>
					</trkpt>
					<trkpt lat="45.687370" lon="4.735760">
						<ele>252</ele>
						<time>2025-04-07T14:47:09Z</time>
					</trkpt>
					<trkpt lat="45.687990" lon="4.735690">
						<ele>245</ele>
						<time>2025-04-07T14:48:32Z</time>
					</trkpt>
					<trkpt lat="45.688300" lon="4.735530">
						<ele>242</ele>
						<time>2025-04-07T14:49:16Z</time>
					</trkpt>
					<trkpt lat="45.688360" lon="4.735470">
						<ele>241</ele>
						<time>2025-04-07T14:49:25Z</time>
					</trkpt>
					<trkpt lat="45.688540" lon="4.735280">
						<ele>239</ele>
						<time>2025-04-07T14:49:55Z</time>
					</trkpt>
					<trkpt lat="45.688770" lon="4.735050">
						<ele>236</ele>
						<time>2025-04-07T14:50:33Z</time>
					</trkpt>
					<trkpt lat="45.688780" lon="4.735040">
						<ele>236</ele>
						<time>2025-04-07T14:50:34Z</time>
					</trkpt>
					<trkpt lat="45.689100" lon="4.734970">
						<ele>232</ele>
						<time>2025-04-07T14:51:18Z</time>
					</trkpt>
					<trkpt lat="45.689210" lon="4.734980">
						<ele>231</ele>
						<time>2025-04-07T14:51:32Z</time>
					</trkpt>
					<trkpt lat="45.689300" lon="4.734980">
						<ele>230</ele>
						<time>2025-04-07T14:51:44Z</time>
					</trkpt>
					<trkpt lat="45.689420" lon="4.735020">
						<ele>229</ele>
						<time>2025-04-07T14:52:01Z</time>
					</trkpt>
					<trkpt lat="45.689550" lon="4.735120">
						<ele>228</ele>
						<time>2025-04-07T14:52:20Z</time>
					</trkpt>
					<trkpt lat="45.689580" lon="4.735210">
						<ele>228</ele>
						<time>2025-04-07T14:52:30Z</time>
					</trkpt>
					<trkpt lat="45.689590" lon="4.735250">
						<ele>228</ele>
						<time>2025-04-07T14:52:34Z</time>
					</trkpt>
					<trkpt lat="45.689570" lon="4.735380">
						<ele>229</ele>
						<time>2025-04-07T14:52:46Z</time>
					</trkpt>
					<trkpt lat="45.689550" lon="4.735600">
						<ele>229</ele>
						<time>2025-04-07T14:53:07Z</time>
					</trkpt>
					<trkpt lat="45.689600" lon="4.735950">
						<ele>229</ele>
						<time>2025-04-07T14:53:40Z</time>
					</trkpt>
					<trkpt lat="45.689630" lon="4.736420">
						<ele>229</ele>
						<time>2025-04-07T14:54:24Z</time>
					</trkpt>
					<trkpt lat="45.689570" lon="4.737420">
						<ele>230</ele>
						<time>2025-04-07T14:55:58Z</time>
					</trkpt>
					<trkpt lat="45.689610" lon="4.737680">
						<ele>228</ele>
						<time>2025-04-07T14:56:22Z</time>
					</trkpt>
					<trkpt lat="45.689620" lon="4.737680">
						<ele>228</ele>
						<time>2025-04-07T14:56:24Z</time>
					</trkpt>
					<trkpt lat="45.689720" lon="4.737800">
						<ele>226</ele>
						<time>2025-04-07T14:56:41Z</time>
					</trkpt>
					<trkpt lat="45.689800" lon="4.737920">
						<ele>225</ele>
						<time>2025-04-07T14:56:57Z</time>
					</trkpt>
					<trkpt lat="45.690050" lon="4.738300">
						<ele>223</ele>
						<time>2025-04-07T14:57:45Z</time>
					</trkpt>
					<trkpt lat="45.690250" lon="4.738500">
						<ele>229</ele>
						<time>2025-04-07T14:58:18Z</time>
					</trkpt>
					<trkpt lat="45.690350" lon="4.738600">
						<ele>232</ele>
						<time>2025-04-07T14:58:34Z</time>
					</trkpt>
					<trkpt lat="45.690400" lon="4.738800">
						<ele>234</ele>
						<time>2025-04-07T14:58:54Z</time>
					</trkpt>
					<trkpt lat="45.690360" lon="4.739060">
						<ele>235</ele>
						<time>2025-04-07T14:59:19Z</time>
					</trkpt>
					<trkpt lat="45.690330" lon="4.739210">
						<ele>235</ele>
						<time>2025-04-07T14:59:33Z</time>
					</trkpt>
					<trkpt lat="45.690350" lon="4.739340">
						<ele>237</ele>
						<time>2025-04-07T14:59:46Z</time>
					</trkpt>
					<trkpt lat="45.690410" lon="4.739090">
						<ele>236</ele>
						<time>2025-04-07T15:00:10Z</time>
					</trkpt>
					<trkpt lat="45.690570" lon="4.738380">
						<ele>236</ele>
						<time>2025-04-07T15:01:20Z</time>
					</trkpt>
					<trkpt lat="45.690580" lon="4.738280">
						<ele>236</ele>
						<time>2025-04-07T15:01:29Z</time>
					</trkpt>
					<trkpt lat="45.690570" lon="4.737930">
						<ele>236</ele>
						<time>2025-04-07T15:02:02Z</time>
					</trkpt>
					<trkpt lat="45.690560" lon="4.737500">
						<ele>236</ele>
						<time>2025-04-07T15:02:42Z</time>
					</trkpt>
					<trkpt lat="45.690550" lon="4.737310">
						<ele>234</ele>
						<time>2025-04-07T15:03:00Z</time>
					</trkpt>
					<trkpt lat="45.690570" lon="4.737180">
						<ele>234</ele>
						<time>2025-04-07T15:03:12Z</time>
					</trkpt>
					<trkpt lat="45.690830" lon="4.736630">
						<ele>233</ele>
						<time>2025-04-07T15:04:14Z</time>
					</trkpt>
					<trkpt lat="45.690980" lon="4.736370">
						<ele>234</ele>
						<time>2025-04-07T15:04:46Z</time>
					</trkpt>
					<trkpt lat="45.691020" lon="4.736130">
						<ele>232</ele>
						<time>2025-04-07T15:05:09Z</time>
					</trkpt>
					<trkpt lat="45.691030" lon="4.735910">
						<ele>230</ele>
						<time>2025-04-07T15:05:29Z</time>
					</trkpt>
					<trkpt lat="45.691030" lon="4.735850">
						<ele>230</ele>
						<time>2025-04-07T15:05:35Z</time>
					</trkpt>
					<trkpt lat="45.691070" lon="4.735660">
						<ele>230</ele>
						<time>2025-04-07T15:05:53Z</time>
					</trkpt>
					<trkpt lat="45.691140" lon="4.735520">
						<ele>230</ele>
						<time>2025-04-07T15:06:09Z</time>
					</trkpt>
					<trkpt lat="45.691300" lon="4.735230">
						<ele>230</ele>
						<time>2025-04-07T15:06:44Z</time>
					</trkpt>
					<trkpt lat="45.691410" lon="4.735000">
						<ele>229</ele>
						<time>2025-04-07T15:07:10Z</time>
					</trkpt>
					<trkpt lat="45.691300" lon="4.735230">
						<ele>230</ele>
						<time>2025-04-07T15:07:36Z</time>
					</trkpt>
					<trkpt lat="45.691140" lon="4.735520">
						<ele>230</ele>
						<time>2025-04-07T15:08:10Z</time>
					</trkpt>
					<trkpt lat="45.691070" lon="4.735660">
						<ele>230</ele>
						<time>2025-04-07T15:08:26Z</time>
					</trkpt>
					<trkpt lat="45.691030" lon="4.735850">
						<ele>230</ele>
						<time>2025-04-07T15:08:45Z</time>
					</trkpt>
					<trkpt lat="45.691030" lon="4.735910">
						<ele>230</ele>
						<time>2025-04-07T15:08:50Z</time>
					</trkpt>
					<trkpt lat="45.691020" lon="4.736130">
						<ele>232</ele>
						<time>2025-04-07T15:09:11Z</time>
					</trkpt>
					<trkpt lat="45.690980" lon="4.736370">
						<ele>234</ele>
						<time>2025-04-07T15:09:34Z</time>
					</trkpt>
					<trkpt lat="45.690830" lon="4.736630">
						<ele>233</ele>
						<time>2025-04-07T15:10:05Z</time>
					</trkpt>
					<trkpt lat="45.690570" lon="4.737180">
						<ele>234</ele>
						<time>2025-04-07T15:11:07Z</time>
					</trkpt>
					<trkpt lat="45.690550" lon="4.737310">
						<ele>234</ele>
						<time>2025-04-07T15:11:20Z</time>
					</trkpt>
					<trkpt lat="45.690560" lon="4.737500">
						<ele>236</ele>
						<time>2025-04-07T15:11:37Z</time>
					</trkpt>
					<trkpt lat="45.690570" lon="4.737930">
						<ele>236</ele>
						<time>2025-04-07T15:12:17Z</time>
					</trkpt>
					<trkpt lat="45.690580" lon="4.738280">
						<ele>236</ele>
						<time>2025-04-07T15:12:50Z</time>
					</trkpt>
					<trkpt lat="45.690570" lon="4.738380">
						<ele>236</ele>
						<time>2025-04-07T15:13:00Z</time>
					</trkpt>
					<trkpt lat="45.690410" lon="4.739090">
						<ele>236</ele>
						<time>2025-04-07T15:14:09Z</time>
					</trkpt>
					<trkpt lat="45.690350" lon="4.739340">
						<ele>237</ele>
						<time>2025-04-07T15:14:34Z</time>
					</trkpt>
					<trkpt lat="45.690330" lon="4.739210">
						<ele>235</ele>
						<time>2025-04-07T15:14:46Z</time>
					</trkpt>
					<trkpt lat="45.690360" lon="4.739060">
						<ele>235</ele>
						<time>2025-04-07T15:15:01Z</time>
					</trkpt>
					<trkpt lat="45.690400" lon="4.738800">
						<ele>234</ele>
						<time>2025-04-07T15:15:26Z</time>
					</trkpt>
					<trkpt lat="45.690350" lon="4.738600">
						<ele>232</ele>
						<time>2025-04-07T15:15:45Z</time>
					</trkpt>
					<trkpt lat="45.690250" lon="4.738500">
						<ele>229</ele>
						<time>2025-04-07T15:16:02Z</time>
					</trkpt>
					<trkpt lat="45.690050" lon="4.738300">
						<ele>223</ele>
						<time>2025-04-07T15:16:34Z</time>
					</trkpt>
					<trkpt lat="45.689800" lon="4.737920">
						<ele>225</ele>
						<time>2025-04-07T15:17:23Z</time>
					</trkpt>
					<trkpt lat="45.689720" lon="4.737800">
						<ele>226</ele>
						<time>2025-04-07T15:17:38Z</time>
					</trkpt>
					<trkpt lat="45.689620" lon="4.737680">
						<ele>228</ele>
						<time>2025-04-07T15:17:56Z</time>
					</trkpt>
					<trkpt lat="45.689610" lon="4.737680">
						<ele>228</ele>
						<time>2025-04-07T15:17:57Z</time>
					</trkpt>
					<trkpt lat="45.689590" lon="4.737790">
						<ele>228</ele>
						<time>2025-04-07T15:18:08Z</time>
					</trkpt>
					<trkpt lat="45.689590" lon="4.737790">
						<ele>228</ele>
						<time>2025-04-07T15:18:08Z</time>
					</trkpt>
					<trkpt lat="45.689590" lon="4.737860">
						<ele>228</ele>
						<time>2025-04-07T15:18:14Z</time>
					</trkpt>
					<trkpt lat="45.689570" lon="4.738050">
						<ele>227</ele>
						<time>2025-04-07T15:18:32Z</time>
					</trkpt>
					<trkpt lat="45.689480" lon="4.738310">
						<ele>227</ele>
						<time>2025-04-07T15:18:59Z</time>
					</trkpt>
					<trkpt lat="45.689350" lon="4.738670">
						<ele>226</ele>
						<time>2025-04-07T15:19:37Z</time>
					</trkpt>
					<trkpt lat="45.689020" lon="4.738890">
						<ele>231</ele>
						<time>2025-04-07T15:20:25Z</time>
					</trkpt>
					<trkpt lat="45.688680" lon="4.739340">
						<ele>238</ele>
						<time>2025-04-07T15:21:27Z</time>
					</trkpt>
					<trkpt lat="45.688570" lon="4.739480">
						<ele>239</ele>
						<time>2025-04-07T15:21:47Z</time>
					</trkpt>
					<trkpt lat="45.688280" lon="4.740040">
						<ele>237</ele>
						<time>2025-04-07T15:22:52Z</time>
					</trkpt>
					<trkpt lat="45.687950" lon="4.740610">
						<ele>240</ele>
						<time>2025-04-07T15:24:01Z</time>
					</trkpt>
					<trkpt lat="45.687840" lon="4.740980">
						<ele>239</ele>
						<time>2025-04-07T15:24:38Z</time>
					</trkpt>
					<trkpt lat="45.687400" lon="4.742340">
						<ele>232</ele>
						<time>2025-04-07T15:26:58Z</time>
					</trkpt>
					<trkpt lat="45.687290" lon="4.742700">
						<ele>230</ele>
						<time>2025-04-07T15:27:35Z</time>
					</trkpt>
					<trkpt lat="45.687220" lon="4.742910">
						<ele>228</ele>
						<time>2025-04-07T15:27:56Z</time>
					</trkpt>
					<trkpt lat="45.687000" lon="4.743250">
						<ele>226</ele>
						<time>2025-04-07T15:28:40Z</time>
					</trkpt>
					<trkpt lat="45.687000" lon="4.743250">
						<ele>226</ele>
						<time>2025-04-07T15:28:40Z</time>
					</trkpt>
					<trkpt lat="45.686970" lon="4.743280">
						<ele>226</ele>
						<time>2025-04-07T15:28:44Z</time>
					</trkpt>
					<trkpt lat="45.686920" lon="4.743320">
						<ele>226</ele>
						<time>2025-04-07T15:28:52Z</time>
					</trkpt>
					<trkpt lat="45.686750" lon="4.743280">
						<ele>229</ele>
						<time>2025-04-07T15:29:15Z</time>
					</trkpt>
					<trkpt lat="45.686670" lon="4.743270">
						<ele>231</ele>
						<time>2025-04-07T15:29:26Z</time>
					</trkpt>
					<trkpt lat="45.685070" lon="4.744940">
						<ele>224</ele>
						<time>2025-04-07T15:33:50Z</time>
					</trkpt>
					<trkpt lat="45.684930" lon="4.745080">
						<ele>223</ele>
						<time>2025-04-07T15:34:13Z</time>
					</trkpt>
					<trkpt lat="45.684680" lon="4.745220">
						<ele>222</ele>
						<time>2025-04-07T15:34:49Z</time>
					</trkpt>
					<trkpt lat="45.684490" lon="4.745260">
						<ele>222</ele>
						<time>2025-04-07T15:35:14Z</time>
					</trkpt>
					<trkpt lat="45.684220" lon="4.745450">
						<ele>221</ele>
						<time>2025-04-07T15:35:54Z</time>
					</trkpt>
					<trkpt lat="45.684200" lon="4.745460">
						<ele>221</ele>
						<time>2025-04-07T15:35:57Z</time>
					</trkpt>
					<trkpt lat="45.684040" lon="4.745670">
						<ele>220</ele>
						<time>2025-04-07T15:36:26Z</time>
					</trkpt>
					<trkpt lat="45.683970" lon="4.745770">
						<ele>220</ele>
						<time>2025-04-07T15:36:39Z</time>
					</trkpt>
					<trkpt lat="45.683930" lon="4.745830">
						<ele>220</ele>
						<time>2025-04-07T15:36:47Z</time>
					</trkpt>
					<trkpt lat="45.683720" lon="4.745970">
						<ele>222</ele>
						<time>2025-04-07T15:37:18Z</time>
					</trkpt>
					<trkpt lat="45.683190" lon="4.746180">
						<ele>225</ele>
						<time>2025-04-07T15:38:32Z</time>
					</trkpt>
					<trkpt lat="45.683120" lon="4.746230">
						<ele>225</ele>
						<time>2025-04-07T15:38:42Z</time>
					</trkpt>
					<trkpt lat="45.682670" lon="4.746550">
						<ele>225</ele>
						<time>2025-04-07T15:39:49Z</time>
					</trkpt>
					<trkpt lat="45.682410" lon="4.746810">
						<ele>223</ele>
						<time>2025-04-07T15:40:31Z</time>
					</trkpt>
					<trkpt lat="45.682190" lon="4.746980">
						<ele>224</ele>
						<time>2025-04-07T15:41:05Z</time>
					</trkpt>
					<trkpt lat="45.682160" lon="4.746980">
						<ele>224</ele>
						<time>2025-04-07T15:41:09Z</time>
					</trkpt>
					<trkpt lat="45.681770" lon="4.747080">
						<ele>226</ele>
						<time>2025-04-07T15:42:02Z</time>
					</trkpt>
					<trkpt lat="45.681500" lon="4.747390">
						<ele>225</ele>
						<time>2025-04-07T15:42:48Z</time>
					</trkpt>
					<trkpt lat="45.681240" lon="4.747640">
						<ele>223</ele>
						<time>2025-04-07T15:43:30Z</time>
					</trkpt>
					<trkpt lat="45.680990" lon="4.747830">
						<ele>222</ele>
						<time>2025-04-07T15:44:07Z</time>
					</trkpt>
					<trkpt lat="45.680850" lon="4.747900">
						<ele>221</ele>
						<time>2025-04-07T15:44:27Z</time>
					</trkpt>
					<trkpt lat="45.680740" lon="4.747930">
						<ele>221</ele>
						<time>2025-04-07T15:44:42Z</time>
					</trkpt>
					<trkpt lat="45.680720" lon="4.747930">
						<ele>221</ele>
						<time>2025-04-07T15:44:45Z</time>
					</trkpt>
					<trkpt lat="45.680590" lon="4.747900">
						<ele>222</ele>
						<time>2025-04-07T15:45:02Z</time>
					</trkpt>
					<trkpt lat="45.680150" lon="4.747760">
						<ele>225</ele>
						<time>2025-04-07T15:46:02Z</time>
					</trkpt>
					<trkpt lat="45.680010" lon="4.747770">
						<ele>225</ele>
						<time>2025-04-07T15:46:21Z</time>
					</trkpt>
					<trkpt lat="45.679870" lon="4.747840">
						<ele>225</ele>
						<time>2025-04-07T15:46:41Z</time>
					</trkpt>
					<trkpt lat="45.679360" lon="4.748220">
						<ele>224</ele>
						<time>2025-04-07T15:47:58Z</time>
					</trkpt>
					<trkpt lat="45.679250" lon="4.748310">
						<ele>224</ele>
						<time>2025-04-07T15:48:15Z</time>
					</trkpt>
					<trkpt lat="45.679140" lon="4.748460">
						<ele>223</ele>
						<time>2025-04-07T15:48:35Z</time>
					</trkpt>
					<trkpt lat="45.679100" lon="4.748550">
						<ele>223</ele>
						<time>2025-04-07T15:48:45Z</time>
					</trkpt>
					<trkpt lat="45.679030" lon="4.748820">
						<ele>221</ele>
						<time>2025-04-07T15:49:12Z</time>
					</trkpt>
					<trkpt lat="45.678990" lon="4.748990">
						<ele>219</ele>
						<time>2025-04-07T15:49:28Z</time>
					</trkpt>
					<trkpt lat="45.678920" lon="4.749150">
						<ele>218</ele>
						<time>2025-04-07T15:49:46Z</time>
					</trkpt>
					<trkpt lat="45.678850" lon="4.749270">
						<ele>217</ele>
						<time>2025-04-07T15:50:01Z</time>
					</trkpt>
					<trkpt lat="45.678690" lon="4.749470">
						<ele>217</ele>
						<time>2025-04-07T15:50:29Z</time>
					</trkpt>
					<trkpt lat="45.678480" lon="4.749670">
						<ele>216</ele>
						<time>2025-04-07T15:51:03Z</time>
					</trkpt>
					<trkpt lat="45.678290" lon="4.749790">
						<ele>215</ele>
						<time>2025-04-07T15:51:30Z</time>
					</trkpt>
					<trkpt lat="45.678050" lon="4.749870">
						<ele>216</ele>
						<time>2025-04-07T15:52:03Z</time>
					</trkpt>
					<trkpt lat="45.677690" lon="4.750020">
						<ele>217</ele>
						<time>2025-04-07T15:52:53Z</time>
					</trkpt>
					<trkpt lat="45.677460" lon="4.750130">
						<ele>217</ele>
						<time>2025-04-07T15:53:26Z</time>
					</trkpt>
					<trkpt lat="45.677300" lon="4.750250">
						<ele>217</ele>
						<time>2025-04-07T15:53:50Z</time>
					</trkpt>
					<trkpt lat="45.677270" lon="4.750270">
						<ele>216</ele>
						<time>2025-04-07T15:53:54Z</time>
					</trkpt>
					<trkpt lat="45.677280" lon="4.750400">
						<ele>215</ele>
						<time>2025-04-07T15:54:06Z</time>
					</trkpt>
					<trkpt lat="45.677350" lon="4.750360">
						<ele>215</ele>
						<time>2025-04-07T15:54:16Z</time>
					</trkpt>
					<trkpt lat="45.677320" lon="4.750470">
						<ele>214</ele>
						<time>2025-04-07T15:54:27Z</time>
					</trkpt>
					<trkpt lat="45.677320" lon="4.750560">
						<ele>212</ele>
						<time>2025-04-07T15:54:36Z</time>
					</trkpt>
					<trkpt lat="45.677340" lon="4.750620">
						<ele>211</ele>
						<time>2025-04-07T15:54:42Z</time>
					</trkpt>
					<trkpt lat="45.677650" lon="4.751300">
						<ele>208</ele>
						<time>2025-04-07T15:55:58Z</time>
					</trkpt>
					<trkpt lat="45.677940" lon="4.751930">
						<ele>208</ele>
						<time>2025-04-07T15:57:08Z</time>
					</trkpt>
					<trkpt lat="45.677900" lon="4.751960">
						<ele>208</ele>
						<time>2025-04-07T15:57:14Z</time>
					</trkpt>
					<trkpt lat="45.677680" lon="4.751490">
						<ele>208</ele>
						<time>2025-04-07T15:58:07Z</time>
					</trkpt>
					<trkpt lat="45.677670" lon="4.751460">
						<ele>208</ele>
						<time>2025-04-07T15:58:10Z</time>
					</trkpt>
					</trkseg>
				</trk>
			</gpx>